sensor_id;sensor_type;location;lat;lon;timestamp;P1;durP1;ratioP1;P2;durP2;ratioP2
41261;SDS011;29629;52.532;13.352;2023-04-01T00:00:31;104.13;;;67.20;;
41261;SDS011;29629;52.532;13.352;2023-04-01T00:02:57;101.93;;;66.68;;
41261;SDS011;29629;52.532;13.352;2023-04-01T00:05:26;102.75;;;67.68;;
41261;SDS011;29629;52.532;13.352;2023-04-01T00:07:53;97.95;;;65.35;;
41261;SDS011;29629;52.532;13.352;2023-04-01T00:10:20;97.50;;;65.32;;
41261;SDS011;29629;52.532;13.352;2023-04-01T00:12:47;99.38;;;65.75;;
41261;SDS011;29629;52.532;13.352;2023-04-01T00:15:14;97.25;;;65.40;;
41261;SDS011;29629;52.532;13.352;2023-04-01T00:17:41;100.80;;;66.53;;
41261;SDS011;29629;52.532;13.352;2023-04-01T00:20:09;98.07;;;65.63;;
41261;SDS011;29629;52.532;13.352;2023-04-01T00:22:38;97.00;;;65.15;;
41261;SDS011;29629;52.532;13.352;2023-04-01T00:25:06;107.07;;;68.60;;
41261;SDS011;29629;52.532;13.352;2023-04-01T00:27:33;99.78;;;66.38;;
41261;SDS011;29629;52.532;13.352;2023-04-01T00:30:00;93.45;;;64.15;;
41261;SDS011;29629;52.532;13.352;2023-04-01T00:32:27;94.50;;;65.03;;
41261;SDS011;29629;52.532;13.352;2023-04-01T00:34:55;94.68;;;64.55;;
41261;SDS011;29629;52.532;13.352;2023-04-01T00:37:24;98.95;;;66.15;;
41261;SDS011;29629;52.532;13.352;2023-04-01T00:39:52;98.25;;;65.30;;
41261;SDS011;29629;52.532;13.352;2023-04-01T00:42:19;104.60;;;67.53;;
41261;SDS011;29629;52.532;13.352;2023-04-01T00:44:47;98.35;;;65.65;;
41261;SDS011;29629;52.532;13.352;2023-04-01T00:47:16;90.82;;;64.00;;
41261;SDS011;29629;52.532;13.352;2023-04-01T00:49:45;91.70;;;63.72;;
41261;SDS011;29629;52.532;13.352;2023-04-01T00:52:14;96.43;;;65.35;;
41261;SDS011;29629;52.532;13.352;2023-04-01T00:54:44;99.72;;;66.15;;
41261;SDS011;29629;52.532;13.352;2023-04-01T00:57:15;97.20;;;65.28;;
41261;SDS011;29629;52.532;13.352;2023-04-01T00:59:47;100.60;;;68.25;;
41261;SDS011;29629;52.532;13.352;2023-04-01T01:02:16;95.15;;;64.93;;
41261;SDS011;29629;52.532;13.352;2023-04-01T01:04:43;96.65;;;65.22;;
41261;SDS011;29629;52.532;13.352;2023-04-01T01:07:12;96.30;;;65.47;;
41261;SDS011;29629;52.532;13.352;2023-04-01T01:12:21;95.72;;;64.85;;
41261;SDS011;29629;52.532;13.352;2023-04-01T01:14:53;87.82;;;62.40;;
41261;SDS011;29629;52.532;13.352;2023-04-01T01:17:33;93.78;;;64.72;;
41261;SDS011;29629;52.532;13.352;2023-04-01T01:26:31;96.97;;;65.05;;
41261;SDS011;29629;52.532;13.352;2023-04-01T01:32:18;100.95;;;66.25;;
41261;SDS011;29629;52.532;13.352;2023-04-01T01:35:03;100.85;;;66.15;;
41261;SDS011;29629;52.532;13.352;2023-04-01T01:37:37;99.70;;;66.15;;
41261;SDS011;29629;52.532;13.352;2023-04-01T01:40:07;100.35;;;66.20;;
41261;SDS011;29629;52.532;13.352;2023-04-01T01:42:37;102.22;;;65.75;;
41261;SDS011;29629;52.532;13.352;2023-04-01T01:45:07;106.38;;;67.00;;
41261;SDS011;29629;52.532;13.352;2023-04-01T01:47:38;98.57;;;65.45;;
41261;SDS011;29629;52.532;13.352;2023-04-01T01:50:09;100.78;;;66.68;;
41261;SDS011;29629;52.532;13.352;2023-04-01T01:52:36;104.00;;;66.63;;
41261;SDS011;29629;52.532;13.352;2023-04-01T01:57:50;97.70;;;65.25;;
41261;SDS011;29629;52.532;13.352;2023-04-01T02:00:17;101.45;;;67.13;;
41261;SDS011;29629;52.532;13.352;2023-04-01T02:02:46;95.45;;;64.68;;
41261;SDS011;29629;52.532;13.352;2023-04-01T02:05:16;100.93;;;66.60;;
41261;SDS011;29629;52.532;13.352;2023-04-01T02:07:46;101.45;;;66.43;;
41261;SDS011;29629;52.532;13.352;2023-04-01T02:10:19;101.32;;;66.50;;
41261;SDS011;29629;52.532;13.352;2023-04-01T02:12:48;107.80;;;68.47;;
41261;SDS011;29629;52.532;13.352;2023-04-01T02:15:17;98.40;;;65.75;;
41261;SDS011;29629;52.532;13.352;2023-04-01T02:17:47;101.43;;;66.72;;
41261;SDS011;29629;52.532;13.352;2023-04-01T02:20:18;101.32;;;66.97;;
41261;SDS011;29629;52.532;13.352;2023-04-01T02:22:49;93.93;;;64.57;;
41261;SDS011;29629;52.532;13.352;2023-04-01T02:25:18;118.05;;;73.40;;
41261;SDS011;29629;52.532;13.352;2023-04-01T02:27:48;94.38;;;64.47;;
41261;SDS011;29629;52.532;13.352;2023-04-01T02:30:16;98.90;;;65.38;;
41261;SDS011;29629;52.532;13.352;2023-04-01T02:32:43;101.03;;;66.85;;
41261;SDS011;29629;52.532;13.352;2023-04-01T02:35:12;100.07;;;66.05;;
41261;SDS011;29629;52.532;13.352;2023-04-01T02:37:44;97.40;;;65.32;;
41261;SDS011;29629;52.532;13.352;2023-04-01T02:40:14;103.97;;;67.05;;
41261;SDS011;29629;52.532;13.352;2023-04-01T02:42:42;103.22;;;66.82;;
41261;SDS011;29629;52.532;13.352;2023-04-01T02:45:09;119.35;;;70.90;;
41261;SDS011;29629;52.532;13.352;2023-04-01T02:47:37;100.97;;;66.28;;
41261;SDS011;29629;52.532;13.352;2023-04-01T02:50:04;88.80;;;63.15;;
41261;SDS011;29629;52.532;13.352;2023-04-01T02:52:32;92.60;;;64.38;;
41261;SDS011;29629;52.532;13.352;2023-04-01T02:55:01;95.55;;;65.30;;
41261;SDS011;29629;52.532;13.352;2023-04-01T02:57:28;90.50;;;64.03;;
41261;SDS011;29629;52.532;13.352;2023-04-01T02:59:55;90.20;;;63.50;;
41261;SDS011;29629;52.532;13.352;2023-04-01T03:02:22;89.55;;;63.70;;
41261;SDS011;29629;52.532;13.352;2023-04-01T03:04:50;96.63;;;65.75;;
41261;SDS011;29629;52.532;13.352;2023-04-01T03:07:17;91.32;;;64.25;;
41261;SDS011;29629;52.532;13.352;2023-04-01T03:09:44;95.22;;;65.55;;
41261;SDS011;29629;52.532;13.352;2023-04-01T03:12:12;86.40;;;62.00;;
41261;SDS011;29629;52.532;13.352;2023-04-01T03:14:39;87.18;;;63.03;;
41261;SDS011;29629;52.532;13.352;2023-04-01T03:17:06;92.47;;;64.47;;
41261;SDS011;29629;52.532;13.352;2023-04-01T03:19:33;91.85;;;64.57;;
41261;SDS011;29629;52.532;13.352;2023-04-01T03:22:00;92.05;;;64.22;;
41261;SDS011;29629;52.532;13.352;2023-04-01T03:24:27;91.07;;;64.10;;
41261;SDS011;29629;52.532;13.352;2023-04-01T03:26:54;91.22;;;64.30;;
41261;SDS011;29629;52.532;13.352;2023-04-01T03:29:22;90.40;;;64.13;;
41261;SDS011;29629;52.532;13.352;2023-04-01T03:31:49;90.88;;;64.13;;
41261;SDS011;29629;52.532;13.352;2023-04-01T03:34:16;92.72;;;64.95;;
41261;SDS011;29629;52.532;13.352;2023-04-01T03:36:43;88.95;;;63.75;;
41261;SDS011;29629;52.532;13.352;2023-04-01T03:39:10;90.72;;;64.03;;
41261;SDS011;29629;52.532;13.352;2023-04-01T03:41:37;89.78;;;63.83;;
41261;SDS011;29629;52.532;13.352;2023-04-01T03:44:04;95.57;;;64.88;;
41261;SDS011;29629;52.532;13.352;2023-04-01T03:46:33;104.05;;;67.22;;
41261;SDS011;29629;52.532;13.352;2023-04-01T03:49:00;102.25;;;67.78;;
41261;SDS011;29629;52.532;13.352;2023-04-01T03:51:27;93.82;;;64.32;;
41261;SDS011;29629;52.532;13.352;2023-04-01T03:53:54;94.82;;;64.78;;
41261;SDS011;29629;52.532;13.352;2023-04-01T03:56:20;94.30;;;64.65;;
41261;SDS011;29629;52.532;13.352;2023-04-01T03:58:47;100.30;;;66.28;;
41261;SDS011;29629;52.532;13.352;2023-04-01T04:01:15;94.72;;;65.13;;
41261;SDS011;29629;52.532;13.352;2023-04-01T04:03:45;89.72;;;63.92;;
41261;SDS011;29629;52.532;13.352;2023-04-01T04:06:12;88.30;;;62.97;;
41261;SDS011;29629;52.532;13.352;2023-04-01T04:08:39;92.82;;;64.93;;
41261;SDS011;29629;52.532;13.352;2023-04-01T04:11:06;90.25;;;63.55;;
41261;SDS011;29629;52.532;13.352;2023-04-01T04:13:34;87.90;;;63.15;;
41261;SDS011;29629;52.532;13.352;2023-04-01T04:16:02;91.75;;;64.10;;
41261;SDS011;29629;52.532;13.352;2023-04-01T04:18:29;91.50;;;64.13;;
41261;SDS011;29629;52.532;13.352;2023-04-01T04:20:58;89.68;;;64.28;;
41261;SDS011;29629;52.532;13.352;2023-04-01T04:23:24;92.00;;;64.57;;
41261;SDS011;29629;52.532;13.352;2023-04-01T04:25:56;93.50;;;64.50;;
41261;SDS011;29629;52.532;13.352;2023-04-01T04:28:24;91.15;;;63.95;;
41261;SDS011;29629;52.532;13.352;2023-04-01T04:30:51;99.22;;;66.38;;
41261;SDS011;29629;52.532;13.352;2023-04-01T04:33:18;89.07;;;63.38;;
41261;SDS011;29629;52.532;13.352;2023-04-01T04:35:45;96.10;;;64.57;;
41261;SDS011;29629;52.532;13.352;2023-04-01T04:38:13;94.65;;;65.20;;
41261;SDS011;29629;52.532;13.352;2023-04-01T04:40:40;96.18;;;65.45;;
41261;SDS011;29629;52.532;13.352;2023-04-01T04:43:09;88.50;;;63.25;;
41261;SDS011;29629;52.532;13.352;2023-04-01T04:45:36;91.22;;;63.97;;
41261;SDS011;29629;52.532;13.352;2023-04-01T04:48:03;115.38;;;71.10;;
41261;SDS011;29629;52.532;13.352;2023-04-01T04:50:30;92.88;;;64.90;;
41261;SDS011;29629;52.532;13.352;2023-04-01T04:52:57;95.47;;;65.55;;
41261;SDS011;29629;52.532;13.352;2023-04-01T04:55:26;95.75;;;65.55;;
41261;SDS011;29629;52.532;13.352;2023-04-01T04:57:53;88.70;;;63.47;;
41261;SDS011;29629;52.532;13.352;2023-04-01T05:00:19;95.88;;;65.80;;
41261;SDS011;29629;52.532;13.352;2023-04-01T05:02:46;96.80;;;64.95;;
41261;SDS011;29629;52.532;13.352;2023-04-01T05:05:13;97.82;;;65.78;;
41261;SDS011;29629;52.532;13.352;2023-04-01T05:07:40;95.97;;;65.88;;
41261;SDS011;29629;52.532;13.352;2023-04-01T05:10:07;103.05;;;67.68;;
41261;SDS011;29629;52.532;13.352;2023-04-01T05:12:36;92.82;;;64.43;;
41261;SDS011;29629;52.532;13.352;2023-04-01T05:15:04;97.72;;;65.97;;
41261;SDS011;29629;52.532;13.352;2023-04-01T05:17:32;96.47;;;64.93;;
41261;SDS011;29629;52.532;13.352;2023-04-01T05:19:59;99.45;;;66.45;;
41261;SDS011;29629;52.532;13.352;2023-04-01T05:22:26;97.97;;;65.75;;
41261;SDS011;29629;52.532;13.352;2023-04-01T05:24:53;102.15;;;67.05;;
41261;SDS011;29629;52.532;13.352;2023-04-01T05:27:20;96.57;;;65.57;;
41261;SDS011;29629;52.532;13.352;2023-04-01T05:29:49;97.88;;;65.70;;
41261;SDS011;29629;52.532;13.352;2023-04-01T05:32:15;97.00;;;65.57;;
41261;SDS011;29629;52.532;13.352;2023-04-01T05:34:43;101.45;;;67.03;;
41261;SDS011;29629;52.532;13.352;2023-04-01T05:37:09;97.15;;;65.95;;
41261;SDS011;29629;52.532;13.352;2023-04-01T05:39:36;96.05;;;65.10;;
41261;SDS011;29629;52.532;13.352;2023-04-01T05:42:05;96.28;;;65.85;;
41261;SDS011;29629;52.532;13.352;2023-04-01T05:44:32;95.22;;;65.50;;
41261;SDS011;29629;52.532;13.352;2023-04-01T05:47:01;98.38;;;66.20;;
41261;SDS011;29629;52.532;13.352;2023-04-01T05:49:28;108.10;;;68.07;;
41261;SDS011;29629;52.532;13.352;2023-04-01T05:51:55;100.07;;;66.45;;
41261;SDS011;29629;52.532;13.352;2023-04-01T05:54:22;127.82;;;76.32;;
41261;SDS011;29629;52.532;13.352;2023-04-01T05:56:49;100.70;;;66.85;;
41261;SDS011;29629;52.532;13.352;2023-04-01T05:59:16;106.47;;;68.88;;
41261;SDS011;29629;52.532;13.352;2023-04-01T06:01:43;99.95;;;66.40;;
41261;SDS011;29629;52.532;13.352;2023-04-01T06:04:12;99.00;;;66.32;;
41261;SDS011;29629;52.532;13.352;2023-04-01T06:06:41;101.57;;;66.80;;
41261;SDS011;29629;52.532;13.352;2023-04-01T06:09:12;103.43;;;67.60;;
41261;SDS011;29629;52.532;13.352;2023-04-01T06:11:43;99.88;;;66.70;;
41261;SDS011;29629;52.532;13.352;2023-04-01T06:14:22;98.40;;;66.50;;
41261;SDS011;29629;52.532;13.352;2023-04-01T06:16:59;100.78;;;66.93;;
41261;SDS011;29629;52.532;13.352;2023-04-01T06:19:41;98.32;;;66.50;;
41261;SDS011;29629;52.532;13.352;2023-04-01T06:22:22;102.43;;;67.20;;
41261;SDS011;29629;52.532;13.352;2023-04-01T06:28:05;101.32;;;67.15;;
41261;SDS011;29629;52.532;13.352;2023-04-01T06:30:47;106.78;;;66.88;;
41261;SDS011;29629;52.532;13.352;2023-04-01T06:33:28;104.13;;;67.00;;
41261;SDS011;29629;52.532;13.352;2023-04-01T06:36:31;101.10;;;68.18;;
41261;SDS011;29629;52.532;13.352;2023-04-01T06:39:22;101.53;;;69.00;;
41261;SDS011;29629;52.532;13.352;2023-04-01T06:42:03;101.20;;;66.95;;
41261;SDS011;29629;52.532;13.352;2023-04-01T06:44:58;97.07;;;65.68;;
41261;SDS011;29629;52.532;13.352;2023-04-01T06:47:38;100.03;;;66.60;;
41261;SDS011;29629;52.532;13.352;2023-04-01T06:50:16;101.45;;;66.65;;
41261;SDS011;29629;52.532;13.352;2023-04-01T06:52:53;102.18;;;67.38;;
41261;SDS011;29629;52.532;13.352;2023-04-01T06:55:27;97.13;;;65.78;;
41261;SDS011;29629;52.532;13.352;2023-04-01T06:58:00;98.43;;;65.88;;
41261;SDS011;29629;52.532;13.352;2023-04-01T07:00:31;100.82;;;66.45;;
41261;SDS011;29629;52.532;13.352;2023-04-01T07:03:04;98.45;;;66.30;;
41261;SDS011;29629;52.532;13.352;2023-04-01T07:05:36;94.40;;;64.82;;
41261;SDS011;29629;52.532;13.352;2023-04-01T07:08:08;97.88;;;64.30;;
41261;SDS011;29629;52.532;13.352;2023-04-01T07:10:40;93.70;;;64.45;;
41261;SDS011;29629;52.532;13.352;2023-04-01T07:13:12;98.32;;;65.95;;
41261;SDS011;29629;52.532;13.352;2023-04-01T07:15:46;98.07;;;66.32;;
41261;SDS011;29629;52.532;13.352;2023-04-01T07:18:23;104.55;;;68.65;;
41261;SDS011;29629;52.532;13.352;2023-04-01T07:20:56;109.75;;;68.72;;
41261;SDS011;29629;52.532;13.352;2023-04-01T07:23:26;103.82;;;66.88;;
41261;SDS011;29629;52.532;13.352;2023-04-01T07:25:58;104.95;;;67.63;;
41261;SDS011;29629;52.532;13.352;2023-04-01T07:28:30;103.45;;;67.28;;
41261;SDS011;29629;52.532;13.352;2023-04-01T07:31:01;109.28;;;67.35;;
41261;SDS011;29629;52.532;13.352;2023-04-01T07:33:37;128.30;;;69.03;;
41261;SDS011;29629;52.532;13.352;2023-04-01T07:36:10;141.98;;;70.38;;
41261;SDS011;29629;52.532;13.352;2023-04-01T07:38:47;97.43;;;66.38;;
41261;SDS011;29629;52.532;13.352;2023-04-01T07:41:26;97.22;;;66.82;;
41261;SDS011;29629;52.532;13.352;2023-04-01T07:44:01;96.32;;;66.03;;
41261;SDS011;29629;52.532;13.352;2023-04-01T07:46:46;95.72;;;64.43;;
41261;SDS011;29629;52.532;13.352;2023-04-01T07:49:34;94.30;;;65.10;;
41261;SDS011;29629;52.532;13.352;2023-04-01T07:52:12;91.80;;;64.80;;
41261;SDS011;29629;52.532;13.352;2023-04-01T07:54:48;86.15;;;62.83;;
41261;SDS011;29629;52.532;13.352;2023-04-01T07:57:20;94.50;;;65.88;;
41261;SDS011;29629;52.532;13.352;2023-04-01T07:59:53;97.55;;;66.20;;
41261;SDS011;29629;52.532;13.352;2023-04-01T08:02:29;91.78;;;65.15;;
41261;SDS011;29629;52.532;13.352;2023-04-01T08:05:08;96.60;;;66.95;;
41261;SDS011;29629;52.532;13.352;2023-04-01T08:07:44;93.82;;;65.85;;
41261;SDS011;29629;52.532;13.352;2023-04-01T08:10:21;94.43;;;65.93;;
41261;SDS011;29629;52.532;13.352;2023-04-01T08:12:55;97.22;;;66.68;;
41261;SDS011;29629;52.532;13.352;2023-04-01T08:15:32;92.05;;;65.55;;
41261;SDS011;29629;52.532;13.352;2023-04-01T08:18:09;87.03;;;63.45;;
41261;SDS011;29629;52.532;13.352;2023-04-01T08:20:46;94.93;;;66.60;;
41261;SDS011;29629;52.532;13.352;2023-04-01T08:23:19;86.78;;;63.28;;
41261;SDS011;29629;52.532;13.352;2023-04-01T08:25:51;91.53;;;65.03;;
41261;SDS011;29629;52.532;13.352;2023-04-01T08:30:56;95.10;;;65.93;;
41261;SDS011;29629;52.532;13.352;2023-04-01T08:33:27;93.60;;;66.07;;
41261;SDS011;29629;52.532;13.352;2023-04-01T08:35:56;84.85;;;63.05;;
41261;SDS011;29629;52.532;13.352;2023-04-01T08:38:30;88.00;;;64.18;;
41261;SDS011;29629;52.532;13.352;2023-04-01T08:41:05;95.22;;;66.13;;
41261;SDS011;29629;52.532;13.352;2023-04-01T08:44:04;92.47;;;65.57;;
41261;SDS011;29629;52.532;13.352;2023-04-01T08:46:56;94.57;;;65.75;;
41261;SDS011;29629;52.532;13.352;2023-04-01T08:49:45;93.38;;;65.82;;
41261;SDS011;29629;52.532;13.352;2023-04-01T08:52:36;95.28;;;65.57;;
41261;SDS011;29629;52.532;13.352;2023-04-01T08:55:12;95.70;;;66.47;;
41261;SDS011;29629;52.532;13.352;2023-04-01T08:57:53;93.75;;;65.25;;
41261;SDS011;29629;52.532;13.352;2023-04-01T09:00:41;95.95;;;66.50;;
41261;SDS011;29629;52.532;13.352;2023-04-01T09:03:25;97.68;;;66.25;;
41261;SDS011;29629;52.532;13.352;2023-04-01T09:06:20;98.43;;;67.40;;
41261;SDS011;29629;52.532;13.352;2023-04-01T09:09:06;110.97;;;70.78;;
41261;SDS011;29629;52.532;13.352;2023-04-01T09:17:55;92.57;;;66.68;;
41261;SDS011;29629;52.532;13.352;2023-04-01T09:20:48;98.68;;;67.07;;
41261;SDS011;29629;52.532;13.352;2023-04-01T09:23:35;101.88;;;67.88;;
41261;SDS011;29629;52.532;13.352;2023-04-01T09:26:25;101.05;;;68.55;;
41261;SDS011;29629;52.532;13.352;2023-04-01T09:29:05;104.90;;;68.65;;
41261;SDS011;29629;52.532;13.352;2023-04-01T09:31:53;102.07;;;67.53;;
41261;SDS011;29629;52.532;13.352;2023-04-01T09:37:21;101.22;;;67.65;;
41261;SDS011;29629;52.532;13.352;2023-04-01T09:39:56;101.57;;;67.72;;
41261;SDS011;29629;52.532;13.352;2023-04-01T09:42:43;99.75;;;68.40;;
41261;SDS011;29629;52.532;13.352;2023-04-01T09:45:23;103.07;;;68.68;;
41261;SDS011;29629;52.532;13.352;2023-04-01T09:48:08;104.47;;;72.50;;
41261;SDS011;29629;52.532;13.352;2023-04-01T09:53:30;99.72;;;69.85;;
41261;SDS011;29629;52.532;13.352;2023-04-01T09:59:45;108.13;;;73.82;;
41261;SDS011;29629;52.532;13.352;2023-04-01T10:02:33;108.03;;;70.70;;
41261;SDS011;29629;52.532;13.352;2023-04-01T10:08:36;105.95;;;68.93;;
41261;SDS011;29629;52.532;13.352;2023-04-01T10:14:37;108.90;;;69.15;;
41261;SDS011;29629;52.532;13.352;2023-04-01T10:20:21;102.32;;;67.18;;
41261;SDS011;29629;52.532;13.352;2023-04-01T10:23:27;101.78;;;67.60;;
41261;SDS011;29629;52.532;13.352;2023-04-01T10:26:18;111.60;;;70.97;;
41261;SDS011;29629;52.532;13.352;2023-04-01T10:29:03;116.75;;;74.35;;
41261;SDS011;29629;52.532;13.352;2023-04-01T10:32:09;109.70;;;68.97;;
41261;SDS011;29629;52.532;13.352;2023-04-01T10:35:20;107.38;;;69.00;;
41261;SDS011;29629;52.532;13.352;2023-04-01T10:38:19;98.85;;;67.35;;
41261;SDS011;29629;52.532;13.352;2023-04-01T10:41:08;113.28;;;71.30;;
41261;SDS011;29629;52.532;13.352;2023-04-01T10:47:25;110.68;;;70.35;;
41261;SDS011;29629;52.532;13.352;2023-04-01T10:53:12;110.85;;;70.10;;
41261;SDS011;29629;52.532;13.352;2023-04-01T10:56:15;104.68;;;67.55;;
41261;SDS011;29629;52.532;13.352;2023-04-01T10:59:05;123.60;;;73.88;;
41261;SDS011;29629;52.532;13.352;2023-04-01T11:08:12;112.90;;;70.20;;
41261;SDS011;29629;52.532;13.352;2023-04-01T11:11:30;109.97;;;69.07;;
41261;SDS011;29629;52.532;13.352;2023-04-01T11:14:23;107.72;;;69.00;;
41261;SDS011;29629;52.532;13.352;2023-04-01T11:17:25;99.65;;;66.32;;
41261;SDS011;29629;52.532;13.352;2023-04-01T11:20:16;102.97;;;66.90;;
41261;SDS011;29629;52.532;13.352;2023-04-01T11:29:01;106.00;;;68.18;;
41261;SDS011;29629;52.532;13.352;2023-04-01T11:31:50;107.57;;;69.30;;
41261;SDS011;29629;52.532;13.352;2023-04-01T11:37:39;110.60;;;69.72;;
41261;SDS011;29629;52.532;13.352;2023-04-01T11:40:16;104.47;;;67.57;;
41261;SDS011;29629;52.532;13.352;2023-04-01T11:42:53;109.25;;;69.53;;
41261;SDS011;29629;52.532;13.352;2023-04-01T11:45:28;110.28;;;69.25;;
41261;SDS011;29629;52.532;13.352;2023-04-01T11:48:11;108.28;;;69.35;;
41261;SDS011;29629;52.532;13.352;2023-04-01T11:50:54;109.63;;;69.90;;
41261;SDS011;29629;52.532;13.352;2023-04-01T11:53:34;105.65;;;67.95;;
41261;SDS011;29629;52.532;13.352;2023-04-01T11:56:13;109.22;;;68.68;;
41261;SDS011;29629;52.532;13.352;2023-04-01T11:58:54;110.55;;;71.13;;
41261;SDS011;29629;52.532;13.352;2023-04-01T12:01:31;110.55;;;70.22;;
41261;SDS011;29629;52.532;13.352;2023-04-01T12:04:23;108.63;;;69.28;;
41261;SDS011;29629;52.532;13.352;2023-04-01T12:07:15;108.97;;;69.30;;
41261;SDS011;29629;52.532;13.352;2023-04-01T12:09:49;108.03;;;69.43;;
41261;SDS011;29629;52.532;13.352;2023-04-01T12:12:25;108.97;;;70.47;;
41261;SDS011;29629;52.532;13.352;2023-04-01T12:15:10;107.97;;;69.88;;
41261;SDS011;29629;52.532;13.352;2023-04-01T12:17:46;106.05;;;68.57;;
41261;SDS011;29629;52.532;13.352;2023-04-01T12:23:05;108.07;;;69.03;;
41261;SDS011;29629;52.532;13.352;2023-04-01T12:25:53;112.78;;;70.15;;
41261;SDS011;29629;52.532;13.352;2023-04-01T12:28:44;109.18;;;72.13;;
41261;SDS011;29629;52.532;13.352;2023-04-01T12:31:25;106.80;;;67.90;;
41261;SDS011;29629;52.532;13.352;2023-04-01T12:37:06;110.95;;;70.50;;
41261;SDS011;29629;52.532;13.352;2023-04-01T12:39:44;111.68;;;70.00;;
41261;SDS011;29629;52.532;13.352;2023-04-01T12:42:37;108.72;;;69.15;;
41261;SDS011;29629;52.532;13.352;2023-04-01T12:45:18;106.90;;;68.30;;
41261;SDS011;29629;52.532;13.352;2023-04-01T12:48:01;109.93;;;71.20;;
41261;SDS011;29629;52.532;13.352;2023-04-01T12:50:48;101.95;;;68.55;;
41261;SDS011;29629;52.532;13.352;2023-04-01T12:53:38;114.88;;;75.53;;
41261;SDS011;29629;52.532;13.352;2023-04-01T12:56:17;114.88;;;76.57;;
41261;SDS011;29629;52.532;13.352;2023-04-01T12:59:01;116.03;;;73.88;;
41261;SDS011;29629;52.532;13.352;2023-04-01T13:01:54;109.10;;;70.03;;
41261;SDS011;29629;52.532;13.352;2023-04-01T13:04:49;111.03;;;73.15;;
41261;SDS011;29629;52.532;13.352;2023-04-01T13:07:53;108.18;;;74.32;;
41261;SDS011;29629;52.532;13.352;2023-04-01T13:10:38;111.45;;;75.50;;
41261;SDS011;29629;52.532;13.352;2023-04-01T13:13:18;104.80;;;70.80;;
41261;SDS011;29629;52.532;13.352;2023-04-01T13:15:58;107.53;;;69.65;;
41261;SDS011;29629;52.532;13.352;2023-04-01T13:18:32;110.43;;;70.13;;
41261;SDS011;29629;52.532;13.352;2023-04-01T13:21:08;107.95;;;68.53;;
41261;SDS011;29629;52.532;13.352;2023-04-01T13:23:48;107.15;;;68.95;;
41261;SDS011;29629;52.532;13.352;2023-04-01T13:26:22;113.65;;;71.65;;
41261;SDS011;29629;52.532;13.352;2023-04-01T13:28:56;118.00;;;72.75;;
41261;SDS011;29629;52.532;13.352;2023-04-01T13:31:33;102.53;;;68.15;;
41261;SDS011;29629;52.532;13.352;2023-04-01T13:34:17;103.88;;;68.18;;
41261;SDS011;29629;52.532;13.352;2023-04-01T13:37:02;111.18;;;70.88;;
41261;SDS011;29629;52.532;13.352;2023-04-01T13:39:44;102.90;;;68.30;;
41261;SDS011;29629;52.532;13.352;2023-04-01T13:42:23;104.88;;;66.35;;
41261;SDS011;29629;52.532;13.352;2023-04-01T13:44:54;111.72;;;69.38;;
41261;SDS011;29629;52.532;13.352;2023-04-01T13:47:35;108.05;;;67.82;;
41261;SDS011;29629;52.532;13.352;2023-04-01T13:50:25;107.22;;;68.15;;
41261;SDS011;29629;52.532;13.352;2023-04-01T13:53:22;105.68;;;68.07;;
41261;SDS011;29629;52.532;13.352;2023-04-01T13:58:56;114.35;;;69.40;;
41261;SDS011;29629;52.532;13.352;2023-04-01T14:01:35;106.82;;;68.47;;
41261;SDS011;29629;52.532;13.352;2023-04-01T14:04:23;107.93;;;67.53;;
41261;SDS011;29629;52.532;13.352;2023-04-01T14:07:18;107.32;;;67.25;;
41261;SDS011;29629;52.532;13.352;2023-04-01T14:10:07;108.53;;;67.70;;
41261;SDS011;29629;52.532;13.352;2023-04-01T14:12:47;107.97;;;67.07;;
41261;SDS011;29629;52.532;13.352;2023-04-01T14:15:28;111.22;;;69.40;;
41261;SDS011;29629;52.532;13.352;2023-04-01T14:18:13;109.55;;;67.30;;
41261;SDS011;29629;52.532;13.352;2023-04-01T14:20:54;100.35;;;64.68;;
41261;SDS011;29629;52.532;13.352;2023-04-01T14:23:49;115.15;;;68.90;;
41261;SDS011;29629;52.532;13.352;2023-04-01T14:26:50;115.78;;;69.50;;
41261;SDS011;29629;52.532;13.352;2023-04-01T14:29:39;104.93;;;66.13;;
41261;SDS011;29629;52.532;13.352;2023-04-01T14:32:23;99.40;;;64.15;;
41261;SDS011;29629;52.532;13.352;2023-04-01T14:35:02;112.78;;;67.40;;
41261;SDS011;29629;52.532;13.352;2023-04-01T14:37:57;109.07;;;67.20;;
41261;SDS011;29629;52.532;13.352;2023-04-01T14:40:34;106.07;;;66.40;;
41261;SDS011;29629;52.532;13.352;2023-04-01T14:43:27;110.82;;;67.30;;
41261;SDS011;29629;52.532;13.352;2023-04-01T14:49:17;101.10;;;67.90;;
41261;SDS011;29629;52.532;13.352;2023-04-01T14:51:48;108.45;;;66.97;;
41261;SDS011;29629;52.532;13.352;2023-04-01T14:54:18;110.28;;;66.55;;
41261;SDS011;29629;52.532;13.352;2023-04-01T14:56:50;108.97;;;67.82;;
41261;SDS011;29629;52.532;13.352;2023-04-01T14:59:26;107.35;;;73.93;;
41261;SDS011;29629;52.532;13.352;2023-04-01T15:01:57;107.65;;;68.15;;
41261;SDS011;29629;52.532;13.352;2023-04-01T15:04:34;107.32;;;73.82;;
41261;SDS011;29629;52.532;13.352;2023-04-01T15:07:11;108.45;;;67.40;;
41261;SDS011;29629;52.532;13.352;2023-04-01T15:10:01;107.38;;;66.47;;
41261;SDS011;29629;52.532;13.352;2023-04-01T15:12:36;106.78;;;66.28;;
41261;SDS011;29629;52.532;13.352;2023-04-01T15:15:14;106.88;;;66.60;;
41261;SDS011;29629;52.532;13.352;2023-04-01T15:17:58;104.72;;;65.97;;
41261;SDS011;29629;52.532;13.352;2023-04-01T15:23:34;105.90;;;67.32;;
41261;SDS011;29629;52.532;13.352;2023-04-01T15:26:18;105.80;;;67.25;;
41261;SDS011;29629;52.532;13.352;2023-04-01T15:29:11;118.18;;;70.65;;
41261;SDS011;29629;52.532;13.352;2023-04-01T15:31:50;105.07;;;66.63;;
41261;SDS011;29629;52.532;13.352;2023-04-01T15:34:27;102.50;;;65.45;;
41261;SDS011;29629;52.532;13.352;2023-04-01T15:37:03;106.93;;;66.55;;
41261;SDS011;29629;52.532;13.352;2023-04-01T15:39:38;110.78;;;67.20;;
41261;SDS011;29629;52.532;13.352;2023-04-01T15:45:30;102.95;;;65.07;;
41261;SDS011;29629;52.532;13.352;2023-04-01T15:48:06;101.78;;;66.35;;
41261;SDS011;29629;52.532;13.352;2023-04-01T15:50:53;109.75;;;68.47;;
41261;SDS011;29629;52.532;13.352;2023-04-01T15:53:30;109.05;;;70.18;;
41261;SDS011;29629;52.532;13.352;2023-04-01T15:56:19;104.93;;;66.85;;
41261;SDS011;29629;52.532;13.352;2023-04-01T15:59:07;114.05;;;69.38;;
41261;SDS011;29629;52.532;13.352;2023-04-01T16:01:46;105.20;;;66.93;;
41261;SDS011;29629;52.532;13.352;2023-04-01T16:04:33;98.47;;;64.50;;
41261;SDS011;29629;52.532;13.352;2023-04-01T16:07:20;102.75;;;64.90;;
41261;SDS011;29629;52.532;13.352;2023-04-01T16:10:09;108.93;;;67.65;;
41261;SDS011;29629;52.532;13.352;2023-04-01T16:12:51;104.28;;;65.93;;
41261;SDS011;29629;52.532;13.352;2023-04-01T16:15:26;102.25;;;65.00;;
41261;SDS011;29629;52.532;13.352;2023-04-01T16:18:04;102.80;;;65.80;;